sensor_id;sensor_type;location;lat;lon;timestamp;temperature;humidity
78463;SHT31;67756;51.982;5.648;2023-11-18T00:01:08;9.2;71.7
78463;SHT31;67756;51.982;5.648;2023-11-18T00:03:38;9.2;71.6
78463;SHT31;67756;51.982;5.648;2023-11-18T00:06:09;9.2;71.8
78463;SHT31;67756;51.982;5.648;2023-11-18T00:08:39;9.2;71.9
78463;SHT31;67756;51.982;5.648;2023-11-18T00:11:07;9.2;71.8
78463;SHT31;67756;51.982;5.648;2023-11-18T00:13:37;9.2;71.6
78463;SHT31;67756;51.982;5.648;2023-11-18T00:16:06;9.2;71.7
78463;SHT31;67756;51.982;5.648;2023-11-18T00:18:38;9.1;71.7
78463;SHT31;67756;51.982;5.648;2023-11-18T00:21:09;9.1;71.6
78463;SHT31;67756;51.982;5.648;2023-11-18T00:23:38;9.1;71.8
78463;SHT31;67756;51.982;5.648;2023-11-18T00:26:07;9.1;71.7
78463;SHT31;67756;51.982;5.648;2023-11-18T00:28:36;9.1;71.9
78463;SHT31;67756;51.982;5.648;2023-11-18T00:31:05;9.1;71.8
78463;SHT31;67756;51.982;5.648;2023-11-18T00:33:34;9.1;71.9
78463;SHT31;67756;51.982;5.648;2023-11-18T00:36:02;9.1;71.8
78463;SHT31;67756;51.982;5.648;2023-11-18T00:38:31;9.0;71.9
78463;SHT31;67756;51.982;5.648;2023-11-18T00:41:01;9.0;71.8
78463;SHT31;67756;51.982;5.648;2023-11-18T00:43:31;9.0;71.9
78463;SHT31;67756;51.982;5.648;2023-11-18T00:45:59;8.9;72.5
78463;SHT31;67756;51.982;5.648;2023-11-18T00:48:33;9.0;72.8
78463;SHT31;67756;51.982;5.648;2023-11-18T00:51:01;9.0;71.9
78463;SHT31;67756;51.982;5.648;2023-11-18T00:53:30;9.0;71.9
78463;SHT31;67756;51.982;5.648;2023-11-18T00:55:59;9.0;72.3
78463;SHT31;67756;51.982;5.648;2023-11-18T00:58:28;9.0;72.2
78463;SHT31;67756;51.982;5.648;2023-11-18T01:00:57;9.0;71.7
78463;SHT31;67756;51.982;5.648;2023-11-18T01:03:27;9.0;71.4
78463;SHT31;67756;51.982;5.648;2023-11-18T01:05:55;9.0;71.3
78463;SHT31;67756;51.982;5.648;2023-11-18T01:08:24;9.0;71.3
78463;SHT31;67756;51.982;5.648;2023-11-18T01:10:53;8.9;71.4
78463;SHT31;67756;51.982;5.648;2023-11-18T01:13:22;8.9;71.6
78463;SHT31;67756;51.982;5.648;2023-11-18T01:15:53;8.8;72.0
78463;SHT31;67756;51.982;5.648;2023-11-18T01:18:21;8.8;72.2
78463;SHT31;67756;51.982;5.648;2023-11-18T01:20:50;8.8;72.4
78463;SHT31;67756;51.982;5.648;2023-11-18T01:23:18;8.9;71.8
78463;SHT31;67756;51.982;5.648;2023-11-18T01:25:47;8.9;71.9
78463;SHT31;67756;51.982;5.648;2023-11-18T01:28:17;8.9;71.8
78463;SHT31;67756;51.982;5.648;2023-11-18T01:30:45;8.9;71.8
78463;SHT31;67756;51.982;5.648;2023-11-18T01:33:14;8.9;71.9
78463;SHT31;67756;51.982;5.648;2023-11-18T01:35:43;8.9;71.7
78463;SHT31;67756;51.982;5.648;2023-11-18T01:38:11;8.9;71.9
78463;SHT31;67756;51.982;5.648;2023-11-18T01:40:40;8.9;71.9
78463;SHT31;67756;51.982;5.648;2023-11-18T01:43:12;8.9;71.9
78463;SHT31;67756;51.982;5.648;2023-11-18T01:45:41;8.9;71.9
78463;SHT31;67756;51.982;5.648;2023-11-18T01:48:09;8.8;72.1
78463;SHT31;67756;51.982;5.648;2023-11-18T01:50:41;8.8;71.9
78463;SHT31;67756;51.982;5.648;2023-11-18T01:53:11;8.8;72.2
78463;SHT31;67756;51.982;5.648;2023-11-18T01:55:40;8.8;72.3
78463;SHT31;67756;51.982;5.648;2023-11-18T01:58:09;8.7;72.5
78463;SHT31;67756;51.982;5.648;2023-11-18T02:00:41;8.7;72.7
78463;SHT31;67756;51.982;5.648;2023-11-18T02:03:11;8.7;72.8
78463;SHT31;67756;51.982;5.648;2023-11-18T02:05:39;8.6;73.1
78463;SHT31;67756;51.982;5.648;2023-11-18T02:08:09;8.6;73.2
78463;SHT31;67756;51.982;5.648;2023-11-18T02:10:48;8.6;73.1
78463;SHT31;67756;51.982;5.648;2023-11-18T02:13:22;8.6;73.3
78463;SHT31;67756;51.982;5.648;2023-11-18T02:15:56;8.6;73.5
78463;SHT31;67756;51.982;5.648;2023-11-18T02:18:27;8.5;73.6
78463;SHT31;67756;51.982;5.648;2023-11-18T02:20:57;8.5;73.7
78463;SHT31;67756;51.982;5.648;2023-11-18T02:23:28;8.5;73.8
78463;SHT31;67756;51.982;5.648;2023-11-18T02:25:59;8.5;73.9
78463;SHT31;67756;51.982;5.648;2023-11-18T02:28:27;8.5;73.8
78463;SHT31;67756;51.982;5.648;2023-11-18T02:31:04;8.5;73.9
78463;SHT31;67756;51.982;5.648;2023-11-18T02:33:41;8.4;74.1
78463;SHT31;67756;51.982;5.648;2023-11-18T02:36:23;8.4;74.2
78463;SHT31;67756;51.982;5.648;2023-11-18T02:38:54;8.4;74.1
78463;SHT31;67756;51.982;5.648;2023-11-18T02:41:25;8.4;74.2
78463;SHT31;67756;51.982;5.648;2023-11-18T02:43:56;8.4;74.1
78463;SHT31;67756;51.982;5.648;2023-11-18T02:46:26;8.4;74.1
78463;SHT31;67756;51.982;5.648;2023-11-18T02:48:57;8.4;74.3
78463;SHT31;67756;51.982;5.648;2023-11-18T02:51:26;8.4;74.2
78463;SHT31;67756;51.982;5.648;2023-11-18T02:53:57;8.4;74.3
78463;SHT31;67756;51.982;5.648;2023-11-18T02:56:28;8.5;74.2
78463;SHT31;67756;51.982;5.648;2023-11-18T02:58:58;8.6;73.9
78463;SHT31;67756;51.982;5.648;2023-11-18T03:01:27;8.7;73.3
78463;SHT31;67756;51.982;5.648;2023-11-18T03:03:56;8.7;73.3
78463;SHT31;67756;51.982;5.648;2023-11-18T03:06:24;8.8;72.8
78463;SHT31;67756;51.982;5.648;2023-11-18T03:08:53;8.9;72.4
78463;SHT31;67756;51.982;5.648;2023-11-18T03:11:22;8.9;72.1
78463;SHT31;67756;51.982;5.648;2023-11-18T03:13:50;8.9;72.1
78463;SHT31;67756;51.982;5.648;2023-11-18T03:16:19;8.9;71.9
78463;SHT31;67756;51.982;5.648;2023-11-18T03:18:48;8.9;72.0
78463;SHT31;67756;51.982;5.648;2023-11-18T03:21:17;8.8;72.0
78463;SHT31;67756;51.982;5.648;2023-11-18T03:23:48;8.8;72.1
78463;SHT31;67756;51.982;5.648;2023-11-18T03:26:16;8.8;72.2
78463;SHT31;67756;51.982;5.648;2023-11-18T03:28:45;8.8;72.3
78463;SHT31;67756;51.982;5.648;2023-11-18T03:31:13;8.7;72.7
78463;SHT31;67756;51.982;5.648;2023-11-18T03:33:42;8.7;72.7
78463;SHT31;67756;51.982;5.648;2023-11-18T03:36:11;8.7;73.1
78463;SHT31;67756;51.982;5.648;2023-11-18T03:38:40;8.6;73.3
78463;SHT31;67756;51.982;5.648;2023-11-18T03:41:10;8.6;73.4
78463;SHT31;67756;51.982;5.648;2023-11-18T03:43:39;8.6;73.4
78463;SHT31;67756;51.982;5.648;2023-11-18T03:46:07;8.6;73.5
78463;SHT31;67756;51.982;5.648;2023-11-18T03:48:37;8.6;73.6
78463;SHT31;67756;51.982;5.648;2023-11-18T03:51:06;8.6;73.8
78463;SHT31;67756;51.982;5.648;2023-11-18T03:53:34;8.5;73.9
78463;SHT31;67756;51.982;5.648;2023-11-18T03:56:03;8.5;74.1
78463;SHT31;67756;51.982;5.648;2023-11-18T03:58:32;8.5;74.2
78463;SHT31;67756;51.982;5.648;2023-11-18T04:01:01;8.5;74.5
78463;SHT31;67756;51.982;5.648;2023-11-18T04:03:30;8.5;74.6
78463;SHT31;67756;51.982;5.648;2023-11-18T04:05:58;8.5;74.5
78463;SHT31;67756;51.982;5.648;2023-11-18T04:08:27;8.5;74.5
78463;SHT31;67756;51.982;5.648;2023-11-18T04:10:55;8.5;74.4
78463;SHT31;67756;51.982;5.648;2023-11-18T04:13:24;8.5;74.4
78463;SHT31;67756;51.982;5.648;2023-11-18T04:15:53;8.5;74.4
78463;SHT31;67756;51.982;5.648;2023-11-18T04:18:21;8.5;74.5
78463;SHT31;67756;51.982;5.648;2023-11-18T04:20:50;8.5;74.4
78463;SHT31;67756;51.982;5.648;2023-11-18T04:23:19;8.5;74.3
78463;SHT31;67756;51.982;5.648;2023-11-18T04:25:47;8.5;74.5
78463;SHT31;67756;51.982;5.648;2023-11-18T04:28:16;8.5;74.4
78463;SHT31;67756;51.982;5.648;2023-11-18T04:30:46;8.5;74.7
78463;SHT31;67756;51.982;5.648;2023-11-18T04:33:14;8.5;74.6
78463;SHT31;67756;51.982;5.648;2023-11-18T04:35:45;8.5;74.7
78463;SHT31;67756;51.982;5.648;2023-11-18T04:38:14;8.5;74.9
78463;SHT31;67756;51.982;5.648;2023-11-18T04:40:42;8.5;74.9
78463;SHT31;67756;51.982;5.648;2023-11-18T04:43:12;8.5;75.5
78463;SHT31;67756;51.982;5.648;2023-11-18T04:45:42;8.6;75.3
78463;SHT31;67756;51.982;5.648;2023-11-18T04:48:10;8.6;74.6
78463;SHT31;67756;51.982;5.648;2023-11-18T04:50:41;8.6;74.5
78463;SHT31;67756;51.982;5.648;2023-11-18T04:53:10;8.7;74.2
78463;SHT31;67756;51.982;5.648;2023-11-18T04:55:39;8.6;74.3
78463;SHT31;67756;51.982;5.648;2023-11-18T04:58:08;8.6;74.4
78463;SHT31;67756;51.982;5.648;2023-11-18T05:00:37;8.6;74.9
78463;SHT31;67756;51.982;5.648;2023-11-18T05:03:08;8.7;75.1
78463;SHT31;67756;51.982;5.648;2023-11-18T05:05:39;8.8;74.4
78463;SHT31;67756;51.982;5.648;2023-11-18T05:08:16;8.9;74.2
78463;SHT31;67756;51.982;5.648;2023-11-18T05:10:48;8.9;74.1
78463;SHT31;67756;51.982;5.648;2023-11-18T05:13:18;9.0;73.8
78463;SHT31;67756;51.982;5.648;2023-11-18T05:15:47;9.1;73.3
78463;SHT31;67756;51.982;5.648;2023-11-18T05:18:16;9.1;72.9
78463;SHT31;67756;51.982;5.648;2023-11-18T05:20:45;9.2;72.4
78463;SHT31;67756;51.982;5.648;2023-11-18T05:23:14;9.2;72.2
78463;SHT31;67756;51.982;5.648;2023-11-18T05:25:43;9.2;72.0
78463;SHT31;67756;51.982;5.648;2023-11-18T05:28:12;9.2;72.0
78463;SHT31;67756;51.982;5.648;2023-11-18T05:30:42;9.2;72.1
78463;SHT31;67756;51.982;5.648;2023-11-18T05:33:11;9.1;72.3
78463;SHT31;67756;51.982;5.648;2023-11-18T05:35:45;9.1;72.6
78463;SHT31;67756;51.982;5.648;2023-11-18T05:38:15;9.0;72.8
78463;SHT31;67756;51.982;5.648;2023-11-18T05:40:45;9.0;72.9
78463;SHT31;67756;51.982;5.648;2023-11-18T05:43:19;9.0;73.2
78463;SHT31;67756;51.982;5.648;2023-11-18T05:45:50;8.9;73.4
78463;SHT31;67756;51.982;5.648;2023-11-18T05:48:28;8.9;73.6
78463;SHT31;67756;51.982;5.648;2023-11-18T05:50:57;8.9;73.7
78463;SHT31;67756;51.982;5.648;2023-11-18T05:53:26;8.9;73.7
78463;SHT31;67756;51.982;5.648;2023-11-18T05:55:57;8.8;73.7
78463;SHT31;67756;51.982;5.648;2023-11-18T05:58:25;8.8;73.9
78463;SHT31;67756;51.982;5.648;2023-11-18T06:00:54;8.8;74.0
78463;SHT31;67756;51.982;5.648;2023-11-18T06:03:23;8.7;74.2
78463;SHT31;67756;51.982;5.648;2023-11-18T06:05:51;8.7;74.3
78463;SHT31;67756;51.982;5.648;2023-11-18T06:08:20;8.7;74.2
78463;SHT31;67756;51.982;5.648;2023-11-18T06:10:49;8.7;74.4
78463;SHT31;67756;51.982;5.648;2023-11-18T06:13:18;8.6;74.4
78463;SHT31;67756;51.982;5.648;2023-11-18T06:15:47;8.6;74.5
78463;SHT31;67756;51.982;5.648;2023-11-18T06:18:16;8.6;74.5
78463;SHT31;67756;51.982;5.648;2023-11-18T06:20:44;8.6;74.7
78463;SHT31;67756;51.982;5.648;2023-11-18T06:23:13;8.6;75.1
78463;SHT31;67756;51.982;5.648;2023-11-18T06:25:45;8.6;75.1
78463;SHT31;67756;51.982;5.648;2023-11-18T06:28:14;8.7;74.8
78463;SHT31;67756;51.982;5.648;2023-11-18T06:30:45;8.7;74.4
78463;SHT31;67756;51.982;5.648;2023-11-18T06:33:13;8.7;74.3
78463;SHT31;67756;51.982;5.648;2023-11-18T06:35:42;8.7;74.3
78463;SHT31;67756;51.982;5.648;2023-11-18T06:38:11;8.7;74.3
78463;SHT31;67756;51.982;5.648;2023-11-18T06:40:41;8.7;74.4
78463;SHT31;67756;51.982;5.648;2023-11-18T06:43:10;8.7;74.3
78463;SHT31;67756;51.982;5.648;2023-11-18T06:45:42;8.7;74.5
78463;SHT31;67756;51.982;5.648;2023-11-18T06:48:10;8.7;74.5
78463;SHT31;67756;51.982;5.648;2023-11-18T06:50:41;8.7;74.4
78463;SHT31;67756;51.982;5.648;2023-11-18T06:53:10;8.6;74.7
78463;SHT31;67756;51.982;5.648;2023-11-18T06:55:39;8.6;74.9
78463;SHT31;67756;51.982;5.648;2023-11-18T06:58:07;8.6;74.8
78463;SHT31;67756;51.982;5.648;2023-11-18T07:00:36;8.6;74.8
78463;SHT31;67756;51.982;5.648;2023-11-18T07:03:05;8.6;74.7
78463;SHT31;67756;51.982;5.648;2023-11-18T07:05:33;8.6;74.8
78463;SHT31;67756;51.982;5.648;2023-11-18T07:08:02;8.7;75.3
78463;SHT31;67756;51.982;5.648;2023-11-18T07:10:30;8.7;74.9
78463;SHT31;67756;51.982;5.648;2023-11-18T07:12:59;8.8;74.8
78463;SHT31;67756;51.982;5.648;2023-11-18T07:15:28;8.8;74.4
78463;SHT31;67756;51.982;5.648;2023-11-18T07:17:56;8.8;74.5
78463;SHT31;67756;51.982;5.648;2023-11-18T07:20:25;8.8;74.6
78463;SHT31;67756;51.982;5.648;2023-11-18T07:22:53;8.9;74.2
78463;SHT31;67756;51.982;5.648;2023-11-18T07:25:22;8.9;74.1
78463;SHT31;67756;51.982;5.648;2023-11-18T07:27:51;8.9;73.9
78463;SHT31;67756;51.982;5.648;2023-11-18T07:30:19;8.9;73.8
78463;SHT31;67756;51.982;5.648;2023-11-18T07:32:49;8.9;74.2
78463;SHT31;67756;51.982;5.648;2023-11-18T07:35:19;8.9;73.9
78463;SHT31;67756;51.982;5.648;2023-11-18T07:37:50;9.0;73.9
78463;SHT31;67756;51.982;5.648;2023-11-18T07:40:20;9.0;74.0
78463;SHT31;67756;51.982;5.648;2023-11-18T07:42:56;9.0;73.9
78463;SHT31;67756;51.982;5.648;2023-11-18T07:45:28;9.0;73.8
78463;SHT31;67756;51.982;5.648;2023-11-18T07:47:59;9.0;73.7
78463;SHT31;67756;51.982;5.648;2023-11-18T07:50:27;9.0;73.7
78463;SHT31;67756;51.982;5.648;2023-11-18T07:52:57;9.0;74.0
78463;SHT31;67756;51.982;5.648;2023-11-18T07:55:26;9.0;73.7
78463;SHT31;67756;51.982;5.648;2023-11-18T07:57:54;9.0;73.7
78463;SHT31;67756;51.982;5.648;2023-11-18T08:00:23;9.0;73.8
78463;SHT31;67756;51.982;5.648;2023-11-18T08:02:54;9.0;74.1
78463;SHT31;67756;51.982;5.648;2023-11-18T08:05:24;9.1;74.0
78463;SHT31;67756;51.982;5.648;2023-11-18T08:07:52;9.1;73.5
78463;SHT31;67756;51.982;5.648;2023-11-18T08:10:21;9.2;73.2
78463;SHT31;67756;51.982;5.648;2023-11-18T08:12:51;9.2;73.3
78463;SHT31;67756;51.982;5.648;2023-11-18T08:15:20;9.2;73.2
78463;SHT31;67756;51.982;5.648;2023-11-18T08:17:49;9.2;73.2
78463;SHT31;67756;51.982;5.648;2023-11-18T08:20:19;9.2;73.3
78463;SHT31;67756;51.982;5.648;2023-11-18T08:22:51;9.2;73.2
78463;SHT31;67756;51.982;5.648;2023-11-18T08:25:23;9.1;73.4
78463;SHT31;67756;51.982;5.648;2023-11-18T08:27:52;9.1;73.4
78463;SHT31;67756;51.982;5.648;2023-11-18T08:30:21;9.1;73.6
78463;SHT31;67756;51.982;5.648;2023-11-18T08:32:50;9.1;73.7
78463;SHT31;67756;51.982;5.648;2023-11-18T08:35:18;9.1;73.8
78463;SHT31;67756;51.982;5.648;2023-11-18T08:37:48;9.1;73.9
78463;SHT31;67756;51.982;5.648;2023-11-18T08:40:17;9.1;74.0
78463;SHT31;67756;51.982;5.648;2023-11-18T08:42:49;9.1;74.0
78463;SHT31;67756;51.982;5.648;2023-11-18T08:45:21;9.0;74.0
78463;SHT31;67756;51.982;5.648;2023-11-18T08:47:54;9.0;74.2
78463;SHT31;67756;51.982;5.648;2023-11-18T08:50:23;9.0;74.2
78463;SHT31;67756;51.982;5.648;2023-11-18T08:52:53;9.0;74.4
78463;SHT31;67756;51.982;5.648;2023-11-18T08:55:25;9.0;74.3
78463;SHT31;67756;51.982;5.648;2023-11-18T08:57:59;9.0;74.2
78463;SHT31;67756;51.982;5.648;2023-11-18T09:00:31;9.1;74.0
78463;SHT31;67756;51.982;5.648;2023-11-18T09:03:20;9.1;74.3
78463;SHT31;67756;51.982;5.648;2023-11-18T09:06:02;9.1;74.5
78463;SHT31;67756;51.982;5.648;2023-11-18T09:08:34;9.1;74.0
78463;SHT31;67756;51.982;5.648;2023-11-18T09:11:06;9.2;74.0
78463;SHT31;67756;51.982;5.648;2023-11-18T09:13:37;9.2;73.3
78463;SHT31;67756;51.982;5.648;2023-11-18T09:16:08;9.2;73.3
78463;SHT31;67756;51.982;5.648;2023-11-18T09:18:39;9.3;73.6
78463;SHT31;67756;51.982;5.648;2023-11-18T09:21:10;9.3;73.2
78463;SHT31;67756;51.982;5.648;2023-11-18T09:23:43;9.4;73.0
78463;SHT31;67756;51.982;5.648;2023-11-18T09:26:14;9.4;73.2
78463;SHT31;67756;51.982;5.648;2023-11-18T09:28:43;9.5;72.8
78463;SHT31;67756;51.982;5.648;2023-11-18T09:31:13;9.6;72.4
78463;SHT31;67756;51.982;5.648;2023-11-18T09:33:45;9.6;72.2
78463;SHT31;67756;51.982;5.648;2023-11-18T09:36:19;9.6;71.9
78463;SHT31;67756;51.982;5.648;2023-11-18T09:38:49;9.7;71.7
78463;SHT31;67756;51.982;5.648;2023-11-18T09:41:18;9.7;71.5
78463;SHT31;67756;51.982;5.648;2023-11-18T09:43:47;9.7;71.6
78463;SHT31;67756;51.982;5.648;2023-11-18T09:46:22;9.7;71.6
78463;SHT31;67756;51.982;5.648;2023-11-18T09:49:03;9.7;71.6
78463;SHT31;67756;51.982;5.648;2023-11-18T09:51:41;9.6;71.3
78463;SHT31;67756;51.982;5.648;2023-11-18T09:54:19;9.6;71.8
78463;SHT31;67756;51.982;5.648;2023-11-18T09:56:59;9.6;72.0
78463;SHT31;67756;51.982;5.648;2023-11-18T09:59:39;9.5;72.8
78463;SHT31;67756;51.982;5.648;2023-11-18T10:02:12;9.5;72.9
78463;SHT31;67756;51.982;5.648;2023-11-18T10:04:41;9.5;73.5
78463;SHT31;67756;51.982;5.648;2023-11-18T10:07:13;9.4;73.8
78463;SHT31;67756;51.982;5.648;2023-11-18T10:09:43;9.4;74.8
78463;SHT31;67756;51.982;5.648;2023-11-18T10:12:12;9.3;75.1
78463;SHT31;67756;51.982;5.648;2023-11-18T10:14:43;9.2;75.8
78463;SHT31;67756;51.982;5.648;2023-11-18T10:17:14;9.2;76.5
78463;SHT31;67756;51.982;5.648;2023-11-18T10:19:51;9.1;77.3
78463;SHT31;67756;51.982;5.648;2023-11-18T10:22:24;9.1;77.7
78463;SHT31;67756;51.982;5.648;2023-11-18T10:24:53;9.0;77.9
78463;SHT31;67756;51.982;5.648;2023-11-18T10:27:24;9.0;78.1
78463;SHT31;67756;51.982;5.648;2023-11-18T10:29:57;8.9;78.4
78463;SHT31;67756;51.982;5.648;2023-11-18T10:32:29;8.9;78.7
78463;SHT31;67756;51.982;5.648;2023-11-18T10:35:03;8.9;78.8
78463;SHT31;67756;51.982;5.648;2023-11-18T10:37:35;8.9;78.9
78463;SHT31;67756;51.982;5.648;2023-11-18T10:40:09;8.9;79.1
78463;SHT31;67756;51.982;5.648;2023-11-18T10:42:40;8.9;79.2
78463;SHT31;67756;51.982;5.648;2023-11-18T10:45:25;8.9;79.5
78463;SHT31;67756;51.982;5.648;2023-11-18T10:47:54;8.9;79.5
78463;SHT31;67756;51.982;5.648;2023-11-18T10:50:25;8.9;79.8
78463;SHT31;67756;51.982;5.648;2023-11-18T10:52:58;8.9;79.9
78463;SHT31;67756;51.982;5.648;2023-11-18T10:55:37;8.9;79.8
78463;SHT31;67756;51.982;5.648;2023-11-18T10:58:07;8.9;80.2
78463;SHT31;67756;51.982;5.648;2023-11-18T11:00:56;8.9;80.3
78463;SHT31;67756;51.982;5.648;2023-11-18T11:03:26;8.9;80.4
78463;SHT31;67756;51.982;5.648;2023-11-18T11:05:59;8.9;80.7
78463;SHT31;67756;51.982;5.648;2023-11-18T11:08:32;9.0;80.6
78463;SHT31;67756;51.982;5.648;2023-11-18T11:11:03;9.0;80.1
78463;SHT31;67756;51.982;5.648;2023-11-18T11:13:34;9.0;80.2
78463;SHT31;67756;51.982;5.648;2023-11-18T11:16:09;9.1;80.0
78463;SHT31;67756;51.982;5.648;2023-11-18T11:18:47;9.1;80.0
78463;SHT31;67756;51.982;5.648;2023-11-18T11:21:21;9.1;79.9
78463;SHT31;67756;51.982;5.648;2023-11-18T11:24:00;9.1;79.9
78463;SHT31;67756;51.982;5.648;2023-11-18T11:26:44;9.1;80.0
78463;SHT31;67756;51.982;5.648;2023-11-18T11:29:25;9.1;80.3
78463;SHT31;67756;51.982;5.648;2023-11-18T11:32:13;9.1;80.4
78463;SHT31;67756;51.982;5.648;2023-11-18T11:34:50;9.1;80.4
78463;SHT31;67756;51.982;5.648;2023-11-18T11:37:25;9.2;80.5
78463;SHT31;67756;51.982;5.648;2023-11-18T11:39:55;9.2;80.6
78463;SHT31;67756;51.982;5.648;2023-11-18T11:42:26;9.3;80.1
78463;SHT31;67756;51.982;5.648;2023-11-18T11:44:56;9.4;79.7
78463;SHT31;67756;51.982;5.648;2023-11-18T11:47:26;9.4;79.6
78463;SHT31;67756;51.982;5.648;2023-11-18T11:50:10;9.4;79.9
78463;SHT31;67756;51.982;5.648;2023-11-18T11:52:51;9.5;79.8
78463;SHT31;67756;51.982;5.648;2023-11-18T11:55:33;9.5;79.5
78463;SHT31;67756;51.982;5.648;2023-11-18T11:58:04;9.5;79.6
78463;SHT31;67756;51.982;5.648;2023-11-18T12:00:40;9.5;79.7
78463;SHT31;67756;51.982;5.648;2023-11-18T12:03:12;9.5;79.6
78463;SHT31;67756;51.982;5.648;2023-11-18T12:05:44;9.5;80.0
78463;SHT31;67756;51.982;5.648;2023-11-18T12:08:15;9.5;80.0
78463;SHT31;67756;51.982;5.648;2023-11-18T12:10:51;9.5;80.1
78463;SHT31;67756;51.982;5.648;2023-11-18T12:13:21;9.4;80.3
78463;SHT31;67756;51.982;5.648;2023-11-18T12:15:54;9.4;80.8
78463;SHT31;67756;51.982;5.648;2023-11-18T12:18:24;9.4;81.0
78463;SHT31;67756;51.982;5.648;2023-11-18T12:20:53;9.4;81.4
78463;SHT31;67756;51.982;5.648;2023-11-18T12:23:29;9.4;81.5
78463;SHT31;67756;51.982;5.648;2023-11-18T12:26:00;9.4;81.8
78463;SHT31;67756;51.982;5.648;2023-11-18T12:28:30;9.4;81.8
78463;SHT31;67756;51.982;5.648;2023-11-18T12:31:04;9.4;81.8
78463;SHT31;67756;51.982;5.648;2023-11-18T12:34:02;9.4;81.9
78463;SHT31;67756;51.982;5.648;2023-11-18T12:37:41;9.4;82.0
78463;SHT31;67756;51.982;5.648;2023-11-18T12:41:17;9.4;82.2
78463;SHT31;67756;51.982;5.648;2023-11-18T12:44:07;9.4;82.3
78463;SHT31;67756;51.982;5.648;2023-11-18T12:46:51;9.4;82.5
78463;SHT31;67756;51.982;5.648;2023-11-18T12:49:22;9.4;82.7
78463;SHT31;67756;51.982;5.648;2023-11-18T12:51:53;9.4;82.9
78463;SHT31;67756;51.982;5.648;2023-11-18T12:54:23;9.4;83.0
78463;SHT31;67756;51.982;5.648;2023-11-18T12:56:54;9.4;82.9
78463;SHT31;67756;51.982;5.648;2023-11-18T12:59:23;9.4;82.9
78463;SHT31;67756;51.982;5.648;2023-11-18T13:01:51;9.4;82.8
78463;SHT31;67756;51.982;5.648;2023-11-18T13:04:23;9.4;82.9
78463;SHT31;67756;51.982;5.648;2023-11-18T13:06:56;9.5;82.8
78463;SHT31;67756;51.982;5.648;2023-11-18T13:09:26;9.5;82.9
78463;SHT31;67756;51.982;5.648;2023-11-18T13:11:59;9.5;82.8
78463;SHT31;67756;51.982;5.648;2023-11-18T13:14:32;9.5;82.7
78463;SHT31;67756;51.982;5.648;2023-11-18T13:17:03;9.5;82.5
78463;SHT31;67756;51.982;5.648;2023-11-18T13:19:35;9.5;82.7
78463;SHT31;67756;51.982;5.648;2023-11-18T13:22:05;9.5;82.5
78463;SHT31;67756;51.982;5.648;2023-11-18T13:24:35;9.5;82.7
78463;SHT31;67756;51.982;5.648;2023-11-18T13:27:08;9.5;82.7
78463;SHT31;67756;51.982;5.648;2023-11-18T13:29:38;9.5;82.8
78463;SHT31;67756;51.982;5.648;2023-11-18T13:32:10;9.5;82.8
78463;SHT31;67756;51.982;5.648;2023-11-18T13:34:39;9.4;83.0
78463;SHT31;67756;51.982;5.648;2023-11-18T13:37:09;9.4;83.2
78463;SHT31;67756;51.982;5.648;2023-11-18T13:39:41;9.4;83.3
78463;SHT31;67756;51.982;5.648;2023-11-18T13:42:21;9.4;83.7
78463;SHT31;67756;51.982;5.648;2023-11-18T13:44:50;9.4;83.3
78463;SHT31;67756;51.982;5.648;2023-11-18T13:47:19;9.5;83.3
78463;SHT31;67756;51.982;5.648;2023-11-18T13:49:50;9.5;83.2
78463;SHT31;67756;51.982;5.648;2023-11-18T13:52:21;9.5;83.2
78463;SHT31;67756;51.982;5.648;2023-11-18T13:54:52;9.5;83.8
78463;SHT31;67756;51.982;5.648;2023-11-18T13:57:32;9.6;83.6
78463;SHT31;67756;51.982;5.648;2023-11-18T14:00:01;9.6;83.2
78463;SHT31;67756;51.982;5.648;2023-11-18T14:02:32;9.6;82.9
78463;SHT31;67756;51.982;5.648;2023-11-18T14:05:02;9.6;83.3
78463;SHT31;67756;51.982;5.648;2023-11-18T14:07:39;9.7;83.5
78463;SHT31;67756;51.982;5.648;2023-11-18T14:10:10;9.8;82.6
78463;SHT31;67756;51.982;5.648;2023-11-18T14:12:40;9.8;82.5
78463;SHT31;67756;51.982;5.648;2023-11-18T14:15:11;9.8;82.5
78463;SHT31;67756;51.982;5.648;2023-11-18T14:17:42;9.9;82.4
78463;SHT31;67756;51.982;5.648;2023-11-18T14:20:11;10.0;82.1
78463;SHT31;67756;51.982;5.648;2023-11-18T14:22:40;10.0;81.8
78463;SHT31;67756;51.982;5.648;2023-11-18T14:25:10;10.1;81.2
78463;SHT31;67756;51.982;5.648;2023-11-18T14:27:40;10.2;80.9
78463;SHT31;67756;51.982;5.648;2023-11-18T14:30:11;10.2;80.6
78463;SHT31;67756;51.982;5.648;2023-11-18T14:32:40;10.3;80.2
78463;SHT31;67756;51.982;5.648;2023-11-18T14:35:08;10.3;80.0
78463;SHT31;67756;51.982;5.648;2023-11-18T14:37:39;10.3;79.9
78463;SHT31;67756;51.982;5.648;2023-11-18T14:40:10;10.2;79.7
78463;SHT31;67756;51.982;5.648;2023-11-18T14:42:41;10.2;80.2
78463;SHT31;67756;51.982;5.648;2023-11-18T14:45:13;10.2;80.4
78463;SHT31;67756;51.982;5.648;2023-11-18T14:47:44;10.2;80.2
78463;SHT31;67756;51.982;5.648;2023-11-18T14:50:17;10.2;80.2
78463;SHT31;67756;51.982;5.648;2023-11-18T14:52:48;10.1;80.4
78463;SHT31;67756;51.982;5.648;2023-11-18T14:55:18;10.1;80.4
78463;SHT31;67756;51.982;5.648;2023-11-18T14:57:47;10.0;80.8
78463;SHT31;67756;51.982;5.648;2023-11-18T15:00:16;10.0;80.9
78463;SHT31;67756;51.982;5.648;2023-11-18T15:02:50;9.9;81.1
78463;SHT31;67756;51.982;5.648;2023-11-18T15:05:20;9.9;81.3
78463;SHT31;67756;51.982;5.648;2023-11-18T15:07:52;9.9;81.6
78463;SHT31;67756;51.982;5.648;2023-11-18T15:10:23;9.8;81.8
78463;SHT31;67756;51.982;5.648;2023-11-18T15:12:53;9.8;81.8
78463;SHT31;67756;51.982;5.648;2023-11-18T15:15:25;9.8;82.0
78463;SHT31;67756;51.982;5.648;2023-11-18T15:17:59;9.8;82.2
78463;SHT31;67756;51.982;5.648;2023-11-18T15:20:30;9.8;82.5
78463;SHT31;67756;51.982;5.648;2023-11-18T15:23:01;9.7;82.4
78463;SHT31;67756;51.982;5.648;2023-11-18T15:25:30;9.7;82.5
78463;SHT31;67756;51.982;5.648;2023-11-18T15:28:00;9.7;82.9
78463;SHT31;67756;51.982;5.648;2023-11-18T15:30:30;9.7;83.0
78463;SHT31;67756;51.982;5.648;2023-11-18T15:32:59;9.8;82.9
78463;SHT31;67756;51.982;5.648;2023-11-18T15:35:27;9.9;82.8
78463;SHT31;67756;51.982;5.648;2023-11-18T15:37:57;9.9;82.0
78463;SHT31;67756;51.982;5.648;2023-11-18T15:40:26;9.9;81.7
78463;SHT31;67756;51.982;5.648;2023-11-18T15:42:54;9.9;81.6
78463;SHT31;67756;51.982;5.648;2023-11-18T15:45:23;9.9;81.5
78463;SHT31;67756;51.982;5.648;2023-11-18T15:47:52;9.9;81.8
78463;SHT31;67756;51.982;5.648;2023-11-18T15:50:21;9.9;81.9
78463;SHT31;67756;51.982;5.648;2023-11-18T15:52:50;9.8;82.0
78463;SHT31;67756;51.982;5.648;2023-11-18T15:55:20;9.8;82.2
78463;SHT31;67756;51.982;5.648;2023-11-18T15:57:51;9.8;82.4
78463;SHT31;67756;51.982;5.648;2023-11-18T16:00:22;9.8;82.7
78463;SHT31;67756;51.982;5.648;2023-11-18T16:02:53;9.8;82.8
78463;SHT31;67756;51.982;5.648;2023-11-18T16:05:24;9.7;83.1
78463;SHT31;67756;51.982;5.648;2023-11-18T16:07:55;9.7;83.2
78463;SHT31;67756;51.982;5.648;2023-11-18T16:10:26;9.7;83.2
78463;SHT31;67756;51.982;5.648;2023-11-18T16:12:57;9.7;83.7
78463;SHT31;67756;51.982;5.648;2023-11-18T16:15:31;9.8;83.9
78463;SHT31;67756;51.982;5.648;2023-11-18T16:18:00;9.9;83.2
78463;SHT31;67756;51.982;5.648;2023-11-18T16:20:31;9.9;82.9
78463;SHT31;67756;51.982;5.648;2023-11-18T16:23:00;9.9;82.7
78463;SHT31;67756;51.982;5.648;2023-11-18T16:25:37;9.9;83.3
78463;SHT31;67756;51.982;5.648;2023-11-18T16:28:08;10.0;82.8
78463;SHT31;67756;51.982;5.648;2023-11-18T16:30:39;10.0;82.4
78463;SHT31;67756;51.982;5.648;2023-11-18T16:33:07;10.0;82.2
78463;SHT31;67756;51.982;5.648;2023-11-18T16:35:37;10.0;82.2
78463;SHT31;67756;51.982;5.648;2023-11-18T16:38:05;10.0;82.3
78463;SHT31;67756;51.982;5.648;2023-11-18T16:40:34;10.0;82.6
78463;SHT31;67756;51.982;5.648;2023-11-18T16:43:02;10.0;83.2